sensor_id;sensor_type;location;lat;lon;timestamp;P1;durP1;ratioP1;P2;durP2;ratioP2
20792;SDS011;10556;-33.662;151.094;2023-12-20T00:02:03;1.47;;;0.30;;
20792;SDS011;10556;-33.662;151.094;2023-12-20T00:07:06;1.07;;;0.20;;
20792;SDS011;10556;-33.662;151.094;2023-12-20T00:12:10;0.40;;;0.20;;
20792;SDS011;10556;-33.662;151.094;2023-12-20T00:17:16;0.60;;;0.10;;
20792;SDS011;10556;-33.662;151.094;2023-12-20T00:22:18;0.30;;;0.10;;
20792;SDS011;10556;-33.662;151.094;2023-12-20T00:27:23;0.20;;;0.20;;
20792;SDS011;10556;-33.662;151.094;2023-12-20T00:32:26;1.33;;;0.20;;
20792;SDS011;10556;-33.662;151.094;2023-12-20T00:37:28;1.73;;;0.30;;
20792;SDS011;10556;-33.662;151.094;2023-12-20T00:42:33;0.07;;;0.07;;
20792;SDS011;10556;-33.662;151.094;2023-12-20T00:47:36;0.20;;;0.10;;
20792;SDS011;10556;-33.662;151.094;2023-12-20T00:52:38;0.10;;;0.10;;
20792;SDS011;10556;-33.662;151.094;2023-12-20T00:57:43;0.67;;;0.23;;
20792;SDS011;10556;-33.662;151.094;2023-12-20T01:02:45;0.63;;;0.27;;
20792;SDS011;10556;-33.662;151.094;2023-12-20T01:07:48;0.30;;;0.20;;
20792;SDS011;10556;-33.662;151.094;2023-12-20T01:12:53;0.77;;;0.37;;
20792;SDS011;10556;-33.662;151.094;2023-12-20T01:17:55;0.10;;;0.07;;
20792;SDS011;10556;-33.662;151.094;2023-12-20T01:22:58;0.10;;;0.10;;
20792;SDS011;10556;-33.662;151.094;2023-12-20T01:28:02;1.80;;;0.20;;
20792;SDS011;10556;-33.662;151.094;2023-12-20T01:33:05;0.93;;;0.40;;
20792;SDS011;10556;-33.662;151.094;2023-12-20T01:38:08;0.40;;;0.20;;
20792;SDS011;10556;-33.662;151.094;2023-12-20T01:43:13;0.83;;;0.10;;
20792;SDS011;10556;-33.662;151.094;2023-12-20T01:48:15;2.43;;;0.20;;
20792;SDS011;10556;-33.662;151.094;2023-12-20T01:53:19;5.00;;;0.40;;
20792;SDS011;10556;-33.662;151.094;2023-12-20T01:58:26;0.40;;;0.20;;
20792;SDS011;10556;-33.662;151.094;2023-12-20T02:03:30;0.60;;;0.27;;
20792;SDS011;10556;-33.662;151.094;2023-12-20T02:08:32;1.90;;;0.43;;
20792;SDS011;10556;-33.662;151.094;2023-12-20T02:13:37;0.10;;;0.10;;
20792;SDS011;10556;-33.662;151.094;2023-12-20T02:18:40;1.03;;;0.20;;
20792;SDS011;10556;-33.662;151.094;2023-12-20T02:23:49;2.60;;;0.40;;
20792;SDS011;10556;-33.662;151.094;2023-12-20T02:28:52;0.40;;;0.20;;
20792;SDS011;10556;-33.662;151.094;2023-12-20T02:33:55;0.37;;;0.10;;
20792;SDS011;10556;-33.662;151.094;2023-12-20T02:39:00;0.93;;;0.17;;
20792;SDS011;10556;-33.662;151.094;2023-12-20T02:44:03;1.07;;;0.20;;
20792;SDS011;10556;-33.662;151.094;2023-12-20T02:49:06;0.67;;;0.30;;
20792;SDS011;10556;-33.662;151.094;2023-12-20T02:54:10;0.53;;;0.30;;
20792;SDS011;10556;-33.662;151.094;2023-12-20T02:59:13;0.73;;;0.30;;
20792;SDS011;10556;-33.662;151.094;2023-12-20T03:04:16;1.33;;;0.30;;
20792;SDS011;10556;-33.662;151.094;2023-12-20T03:09:20;0.63;;;0.30;;
20792;SDS011;10556;-33.662;151.094;2023-12-20T03:14:23;2.33;;;0.27;;
20792;SDS011;10556;-33.662;151.094;2023-12-20T03:19:25;0.93;;;0.30;;
20792;SDS011;10556;-33.662;151.094;2023-12-20T03:24:30;0.30;;;0.30;;
20792;SDS011;10556;-33.662;151.094;2023-12-20T03:29:32;2.27;;;0.30;;
20792;SDS011;10556;-33.662;151.094;2023-12-20T03:34:35;0.60;;;0.30;;
20792;SDS011;10556;-33.662;151.094;2023-12-20T03:39:39;0.87;;;0.20;;
20792;SDS011;10556;-33.662;151.094;2023-12-20T03:44:42;1.40;;;0.43;;
20792;SDS011;10556;-33.662;151.094;2023-12-20T03:49:45;0.67;;;0.23;;
20792;SDS011;10556;-33.662;151.094;2023-12-20T03:54:49;0.13;;;0.13;;
20792;SDS011;10556;-33.662;151.094;2023-12-20T03:59:52;1.20;;;0.30;;
20792;SDS011;10556;-33.662;151.094;2023-12-20T04:04:55;0.67;;;0.20;;
20792;SDS011;10556;-33.662;151.094;2023-12-20T04:09:59;0.40;;;0.13;;
20792;SDS011;10556;-33.662;151.094;2023-12-20T04:15:02;1.53;;;0.43;;
20792;SDS011;10556;-33.662;151.094;2023-12-20T04:20:05;0.90;;;0.30;;
20792;SDS011;10556;-33.662;151.094;2023-12-20T04:25:10;2.23;;;0.20;;
20792;SDS011;10556;-33.662;151.094;2023-12-20T04:30:16;1.03;;;0.30;;
20792;SDS011;10556;-33.662;151.094;2023-12-20T04:35:19;0.80;;;0.37;;
20792;SDS011;10556;-33.662;151.094;2023-12-20T04:40:23;1.37;;;0.20;;
20792;SDS011;10556;-33.662;151.094;2023-12-20T04:45:26;1.20;;;0.20;;
20792;SDS011;10556;-33.662;151.094;2023-12-20T04:50:31;1.03;;;0.37;;
20792;SDS011;10556;-33.662;151.094;2023-12-20T04:55:36;1.20;;;0.23;;
20792;SDS011;10556;-33.662;151.094;2023-12-20T05:00:39;0.40;;;0.20;;
20792;SDS011;10556;-33.662;151.094;2023-12-20T05:05:41;0.27;;;0.20;;
20792;SDS011;10556;-33.662;151.094;2023-12-20T05:10:46;2.07;;;0.20;;
20792;SDS011;10556;-33.662;151.094;2023-12-20T05:15:48;1.07;;;0.30;;
20792;SDS011;10556;-33.662;151.094;2023-12-20T05:20:51;0.60;;;0.20;;
20792;SDS011;10556;-33.662;151.094;2023-12-20T05:25:56;0.13;;;0.10;;
20792;SDS011;10556;-33.662;151.094;2023-12-20T05:30:58;1.27;;;0.27;;
20792;SDS011;10556;-33.662;151.094;2023-12-20T05:36:01;1.70;;;0.20;;
20792;SDS011;10556;-33.662;151.094;2023-12-20T05:41:06;1.77;;;0.30;;
20792;SDS011;10556;-33.662;151.094;2023-12-20T05:46:10;0.30;;;0.27;;
20792;SDS011;10556;-33.662;151.094;2023-12-20T05:51:12;0.17;;;0.10;;
20792;SDS011;10556;-33.662;151.094;2023-12-20T05:56:17;2.53;;;0.30;;
20792;SDS011;10556;-33.662;151.094;2023-12-20T06:01:20;0.70;;;0.40;;
20792;SDS011;10556;-33.662;151.094;2023-12-20T06:06:22;0.40;;;0.10;;
20792;SDS011;10556;-33.662;151.094;2023-12-20T06:11:27;1.60;;;0.20;;
20792;SDS011;10556;-33.662;151.094;2023-12-20T06:16:29;0.53;;;0.20;;
20792;SDS011;10556;-33.662;151.094;2023-12-20T06:21:33;0.40;;;0.07;;
20792;SDS011;10556;-33.662;151.094;2023-12-20T06:26:38;0.87;;;0.20;;
20792;SDS011;10556;-33.662;151.094;2023-12-20T06:31:40;1.23;;;0.30;;
20792;SDS011;10556;-33.662;151.094;2023-12-20T06:36:43;0.60;;;0.20;;
20792;SDS011;10556;-33.662;151.094;2023-12-20T06:41:47;0.50;;;0.20;;
20792;SDS011;10556;-33.662;151.094;2023-12-20T06:46:50;1.37;;;0.20;;
20792;SDS011;10556;-33.662;151.094;2023-12-20T06:51:53;2.43;;;0.30;;
20792;SDS011;10556;-33.662;151.094;2023-12-20T06:56:57;2.87;;;0.30;;
20792;SDS011;10556;-33.662;151.094;2023-12-20T07:02:00;2.43;;;0.30;;
20792;SDS011;10556;-33.662;151.094;2023-12-20T07:07:03;0.20;;;0.20;;
20792;SDS011;10556;-33.662;151.094;2023-12-20T07:12:07;1.37;;;0.20;;
20792;SDS011;10556;-33.662;151.094;2023-12-20T07:17:10;0.50;;;0.20;;
20792;SDS011;10556;-33.662;151.094;2023-12-20T07:22:13;2.03;;;0.40;;
20792;SDS011;10556;-33.662;151.094;2023-12-20T07:27:17;1.40;;;0.30;;
20792;SDS011;10556;-33.662;151.094;2023-12-20T07:32:20;1.33;;;0.30;;
20792;SDS011;10556;-33.662;151.094;2023-12-20T07:37:22;1.17;;;0.43;;
20792;SDS011;10556;-33.662;151.094;2023-12-20T07:42:27;3.83;;;0.37;;
20792;SDS011;10556;-33.662;151.094;2023-12-20T07:47:29;1.23;;;0.50;;
20792;SDS011;10556;-33.662;151.094;2023-12-20T07:52:32;0.67;;;0.30;;
20792;SDS011;10556;-33.662;151.094;2023-12-20T07:57:37;0.97;;;0.30;;
20792;SDS011;10556;-33.662;151.094;2023-12-20T08:02:40;1.53;;;0.30;;
20792;SDS011;10556;-33.662;151.094;2023-12-20T08:07:42;3.27;;;0.40;;
20792;SDS011;10556;-33.662;151.094;2023-12-20T08:12:47;3.30;;;0.40;;
20792;SDS011;10556;-33.662;151.094;2023-12-20T08:17:49;3.40;;;0.70;;
20792;SDS011;10556;-33.662;151.094;2023-12-20T08:22:52;1.87;;;0.40;;
20792;SDS011;10556;-33.662;151.094;2023-12-20T08:27:57;1.07;;;0.30;;
20792;SDS011;10556;-33.662;151.094;2023-12-20T08:32:59;1.67;;;0.50;;
20792;SDS011;10556;-33.662;151.094;2023-12-20T08:38:02;2.00;;;1.07;;
20792;SDS011;10556;-33.662;151.094;2023-12-20T08:43:07;3.13;;;0.40;;
20792;SDS011;10556;-33.662;151.094;2023-12-20T08:48:09;1.87;;;0.40;;
20792;SDS011;10556;-33.662;151.094;2023-12-20T08:53:12;1.13;;;0.30;;
20792;SDS011;10556;-33.662;151.094;2023-12-20T08:58:16;2.47;;;0.47;;
20792;SDS011;10556;-33.662;151.094;2023-12-20T09:03:19;2.97;;;0.50;;
20792;SDS011;10556;-33.662;151.094;2023-12-20T09:08:22;0.97;;;0.40;;
20792;SDS011;10556;-33.662;151.094;2023-12-20T09:13:26;4.37;;;0.70;;
20792;SDS011;10556;-33.662;151.094;2023-12-20T09:18:29;1.33;;;0.43;;
20792;SDS011;10556;-33.662;151.094;2023-12-20T09:23:31;3.47;;;0.50;;
20792;SDS011;10556;-33.662;151.094;2023-12-20T09:28:36;2.37;;;0.53;;
20792;SDS011;10556;-33.662;151.094;2023-12-20T09:33:39;2.77;;;0.60;;
20792;SDS011;10556;-33.662;151.094;2023-12-20T09:38:41;2.13;;;0.60;;
20792;SDS011;10556;-33.662;151.094;2023-12-20T09:43:46;1.00;;;0.50;;
20792;SDS011;10556;-33.662;151.094;2023-12-20T09:48:52;1.27;;;0.40;;
20792;SDS011;10556;-33.662;151.094;2023-12-20T09:53:55;0.60;;;0.43;;
20792;SDS011;10556;-33.662;151.094;2023-12-20T09:59:02;2.00;;;0.63;;
20792;SDS011;10556;-33.662;151.094;2023-12-20T10:04:04;0.57;;;0.40;;
20792;SDS011;10556;-33.662;151.094;2023-12-20T10:09:08;0.50;;;0.50;;
20792;SDS011;10556;-33.662;151.094;2023-12-20T10:14:13;0.60;;;0.33;;
20792;SDS011;10556;-33.662;151.094;2023-12-20T10:19:19;0.60;;;0.60;;
20792;SDS011;10556;-33.662;151.094;2023-12-20T10:24:22;1.40;;;0.70;;
20792;SDS011;10556;-33.662;151.094;2023-12-20T10:29:27;0.70;;;0.57;;
20792;SDS011;10556;-33.662;151.094;2023-12-20T10:34:29;3.07;;;0.53;;
20792;SDS011;10556;-33.662;151.094;2023-12-20T10:39:34;3.43;;;0.70;;
20792;SDS011;10556;-33.662;151.094;2023-12-20T10:44:39;1.50;;;0.60;;
20792;SDS011;10556;-33.662;151.094;2023-12-20T10:49:42;2.77;;;0.60;;
20792;SDS011;10556;-33.662;151.094;2023-12-20T10:54:46;1.30;;;0.70;;
20792;SDS011;10556;-33.662;151.094;2023-12-20T10:59:50;3.07;;;0.70;;
20792;SDS011;10556;-33.662;151.094;2023-12-20T11:04:59;1.03;;;0.50;;
20792;SDS011;10556;-33.662;151.094;2023-12-20T11:10:10;3.33;;;0.67;;
20792;SDS011;10556;-33.662;151.094;2023-12-20T11:15:21;1.80;;;0.60;;
20792;SDS011;10556;-33.662;151.094;2023-12-20T11:20:24;1.00;;;0.53;;
20792;SDS011;10556;-33.662;151.094;2023-12-20T11:25:51;5.33;;;1.03;;
20792;SDS011;10556;-33.662;151.094;2023-12-20T11:30:57;2.53;;;0.60;;
20792;SDS011;10556;-33.662;151.094;2023-12-20T11:36:01;1.47;;;0.60;;
20792;SDS011;10556;-33.662;151.094;2023-12-20T11:41:05;1.53;;;0.50;;
20792;SDS011;10556;-33.662;151.094;2023-12-20T11:46:10;1.00;;;0.50;;
20792;SDS011;10556;-33.662;151.094;2023-12-20T11:51:13;2.27;;;0.40;;
20792;SDS011;10556;-33.662;151.094;2023-12-20T11:56:16;1.13;;;0.50;;
20792;SDS011;10556;-33.662;151.094;2023-12-20T12:01:21;2.03;;;0.50;;
20792;SDS011;10556;-33.662;151.094;2023-12-20T12:06:25;3.23;;;0.50;;
20792;SDS011;10556;-33.662;151.094;2023-12-20T12:11:28;2.40;;;0.57;;
20792;SDS011;10556;-33.662;151.094;2023-12-20T12:16:32;1.80;;;0.60;;
20792;SDS011;10556;-33.662;151.094;2023-12-20T12:21:35;2.83;;;0.63;;
20792;SDS011;10556;-33.662;151.094;2023-12-20T12:26:38;1.97;;;0.40;;
20792;SDS011;10556;-33.662;151.094;2023-12-20T12:31:42;0.80;;;0.30;;
20792;SDS011;10556;-33.662;151.094;2023-12-20T12:36:45;0.87;;;0.50;;
20792;SDS011;10556;-33.662;151.094;2023-12-20T12:41:49;4.80;;;0.60;;
20792;SDS011;10556;-33.662;151.094;2023-12-20T12:46:53;0.93;;;0.20;;
20792;SDS011;10556;-33.662;151.094;2023-12-20T12:51:56;0.77;;;0.27;;
20792;SDS011;10556;-33.662;151.094;2023-12-20T12:56:59;0.73;;;0.30;;
20792;SDS011;10556;-33.662;151.094;2023-12-20T13:02:04;0.40;;;0.20;;
20792;SDS011;10556;-33.662;151.094;2023-12-20T13:07:07;1.17;;;0.40;;
20792;SDS011;10556;-33.662;151.094;2023-12-20T13:12:10;2.57;;;0.40;;
20792;SDS011;10556;-33.662;151.094;2023-12-20T13:17:15;0.63;;;0.17;;
20792;SDS011;10556;-33.662;151.094;2023-12-20T13:22:17;3.07;;;0.30;;
20792;SDS011;10556;-33.662;151.094;2023-12-20T13:27:20;0.60;;;0.20;;
20792;SDS011;10556;-33.662;151.094;2023-12-20T13:32:27;0.83;;;0.20;;
20792;SDS011;10556;-33.662;151.094;2023-12-20T13:37:29;0.90;;;0.23;;
20792;SDS011;10556;-33.662;151.094;2023-12-20T13:42:32;1.37;;;0.20;;
20792;SDS011;10556;-33.662;151.094;2023-12-20T13:47:37;0.67;;;0.20;;
20792;SDS011;10556;-33.662;151.094;2023-12-20T13:52:40;0.83;;;0.20;;
20792;SDS011;10556;-33.662;151.094;2023-12-20T13:57:42;0.37;;;0.20;;
20792;SDS011;10556;-33.662;151.094;2023-12-20T14:02:47;0.30;;;0.10;;
20792;SDS011;10556;-33.662;151.094;2023-12-20T14:07:49;0.10;;;0.10;;
20792;SDS011;10556;-33.662;151.094;2023-12-20T14:12:52;1.50;;;0.17;;
20792;SDS011;10556;-33.662;151.094;2023-12-20T14:17:57;0.40;;;0.10;;
20792;SDS011;10556;-33.662;151.094;2023-12-20T14:22:59;0.57;;;0.07;;
20792;SDS011;10556;-33.662;151.094;2023-12-20T14:28:02;0.40;;;0.00;;
20792;SDS011;10556;-33.662;151.094;2023-12-20T14:33:07;0.93;;;0.37;;
20792;SDS011;10556;-33.662;151.094;2023-12-20T14:38:10;2.03;;;0.10;;
20792;SDS011;10556;-33.662;151.094;2023-12-20T14:43:12;0.10;;;0.10;;
20792;SDS011;10556;-33.662;151.094;2023-12-20T14:48:17;0.27;;;0.10;;
20792;SDS011;10556;-33.662;151.094;2023-12-20T14:53:19;1.33;;;0.17;;
20792;SDS011;10556;-33.662;151.094;2023-12-20T14:58:22;0.13;;;0.10;;
20792;SDS011;10556;-33.662;151.094;2023-12-20T15:03:27;1.40;;;0.10;;
20792;SDS011;10556;-33.662;151.094;2023-12-20T15:08:29;0.53;;;0.10;;
20792;SDS011;10556;-33.662;151.094;2023-12-20T15:13:32;0.00;;;0.00;;
20792;SDS011;10556;-33.662;151.094;2023-12-20T15:18:37;0.10;;;0.10;;
20792;SDS011;10556;-33.662;151.094;2023-12-20T15:23:39;0.00;;;0.00;;
20792;SDS011;10556;-33.662;151.094;2023-12-20T15:28:42;0.07;;;0.07;;
20792;SDS011;10556;-33.662;151.094;2023-12-20T15:33:46;0.50;;;0.00;;
20792;SDS011;10556;-33.662;151.094;2023-12-20T15:38:49;1.93;;;0.10;;
20792;SDS011;10556;-33.662;151.094;2023-12-20T15:43:52;0.40;;;0.07;;
20792;SDS011;10556;-33.662;151.094;2023-12-20T15:48:56;0.30;;;0.10;;
20792;SDS011;10556;-33.662;151.094;2023-12-20T15:53:59;1.10;;;0.10;;
20792;SDS011;10556;-33.662;151.094;2023-12-20T15:59:01;0.47;;;0.10;;
20792;SDS011;10556;-33.662;151.094;2023-12-20T16:04:06;0.13;;;0.13;;
20792;SDS011;10556;-33.662;151.094;2023-12-20T16:09:09;0.00;;;0.00;;
20792;SDS011;10556;-33.662;151.094;2023-12-20T16:14:11;0.50;;;0.10;;
20792;SDS011;10556;-33.662;151.094;2023-12-20T16:19:16;2.03;;;0.00;;
20792;SDS011;10556;-33.662;151.094;2023-12-20T16:24:19;0.77;;;0.10;;
20792;SDS011;10556;-33.662;151.094;2023-12-20T16:29:21;0.00;;;0.00;;
20792;SDS011;10556;-33.662;151.094;2023-12-20T16:34:26;0.00;;;0.00;;
20792;SDS011;10556;-33.662;151.094;2023-12-20T16:39:28;0.10;;;0.10;;
20792;SDS011;10556;-33.662;151.094;2023-12-20T16:44:31;0.00;;;0.00;;
20792;SDS011;10556;-33.662;151.094;2023-12-20T16:49:35;0.00;;;0.00;;
20792;SDS011;10556;-33.662;151.094;2023-12-20T16:54:38;0.00;;;0.00;;
20792;SDS011;10556;-33.662;151.094;2023-12-20T16:59:42;0.77;;;0.10;;
20792;SDS011;10556;-33.662;151.094;2023-12-20T17:04:46;0.20;;;0.00;;
20792;SDS011;10556;-33.662;151.094;2023-12-20T17:09:50;0.10;;;0.00;;
20792;SDS011;10556;-33.662;151.094;2023-12-20T17:14:53;0.37;;;0.00;;
20792;SDS011;10556;-33.662;151.094;2023-12-20T17:19:57;0.17;;;0.00;;
20792;SDS011;10556;-33.662;151.094;2023-12-20T17:25:00;0.10;;;0.10;;
20792;SDS011;10556;-33.662;151.094;2023-12-20T17:30:03;0.10;;;0.10;;
20792;SDS011;10556;-33.662;151.094;2023-12-20T17:35:08;0.00;;;0.00;;
20792;SDS011;10556;-33.662;151.094;2023-12-20T17:40:11;0.63;;;0.10;;
20792;SDS011;10556;-33.662;151.094;2023-12-20T17:45:14;0.00;;;0.00;;
20792;SDS011;10556;-33.662;151.094;2023-12-20T17:50:18;0.10;;;0.10;;
20792;SDS011;10556;-33.662;151.094;2023-12-20T17:55:21;2.43;;;0.10;;
20792;SDS011;10556;-33.662;151.094;2023-12-20T18:00:24;1.50;;;0.10;;
20792;SDS011;10556;-33.662;151.094;2023-12-20T18:05:32;1.90;;;0.10;;
20792;SDS011;10556;-33.662;151.094;2023-12-20T18:10:35;0.53;;;0.10;;
20792;SDS011;10556;-33.662;151.094;2023-12-20T18:15:37;0.10;;;0.10;;
20792;SDS011;10556;-33.662;151.094;2023-12-20T18:20:42;1.03;;;0.10;;
20792;SDS011;10556;-33.662;151.094;2023-12-20T18:25:45;0.50;;;0.17;;
20792;SDS011;10556;-33.662;151.094;2023-12-20T18:30:49;0.10;;;0.10;;
20792;SDS011;10556;-33.662;151.094;2023-12-20T18:35:54;1.47;;;0.10;;
20792;SDS011;10556;-33.662;151.094;2023-12-20T18:40:57;0.10;;;0.10;;
20792;SDS011;10556;-33.662;151.094;2023-12-20T18:46:00;0.00;;;0.00;;
20792;SDS011;10556;-33.662;151.094;2023-12-20T18:51:04;0.10;;;0.00;;
20792;SDS011;10556;-33.662;151.094;2023-12-20T18:56:07;0.30;;;0.00;;
20792;SDS011;10556;-33.662;151.094;2023-12-20T19:01:10;0.20;;;0.10;;
20792;SDS011;10556;-33.662;151.094;2023-12-20T19:06:14;0.00;;;0.00;;
20792;SDS011;10556;-33.662;151.094;2023-12-20T19:11:17;0.50;;;0.10;;
20792;SDS011;10556;-33.662;151.094;2023-12-20T19:16:20;0.13;;;0.10;;
20792;SDS011;10556;-33.662;151.094;2023-12-20T19:21:24;0.27;;;0.10;;
20792;SDS011;10556;-33.662;151.094;2023-12-20T19:26:27;0.10;;;0.00;;
20792;SDS011;10556;-33.662;151.094;2023-12-20T19:31:30;0.10;;;0.10;;
20792;SDS011;10556;-33.662;151.094;2023-12-20T19:36:35;0.10;;;0.10;;
20792;SDS011;10556;-33.662;151.094;2023-12-20T19:41:37;0.67;;;0.10;;
20792;SDS011;10556;-33.662;151.094;2023-12-20T19:46:40;0.07;;;0.07;;
20792;SDS011;10556;-33.662;151.094;2023-12-20T19:51:45;0.93;;;0.10;;
20792;SDS011;10556;-33.662;151.094;2023-12-20T19:56:48;0.00;;;0.00;;
20792;SDS011;10556;-33.662;151.094;2023-12-20T20:01:50;2.67;;;0.10;;
20792;SDS011;10556;-33.662;151.094;2023-12-20T20:06:55;0.20;;;0.10;;
20792;SDS011;10556;-33.662;151.094;2023-12-20T20:11:57;0.67;;;0.10;;
20792;SDS011;10556;-33.662;151.094;2023-12-20T20:17:00;0.00;;;0.00;;
20792;SDS011;10556;-33.662;151.094;2023-12-20T20:22:05;0.10;;;0.03;;
20792;SDS011;10556;-33.662;151.094;2023-12-20T20:27:07;0.20;;;0.10;;
20792;SDS011;10556;-33.662;151.094;2023-12-20T20:32:10;0.20;;;0.07;;
20792;SDS011;10556;-33.662;151.094;2023-12-20T20:37:14;2.10;;;0.20;;
20792;SDS011;10556;-33.662;151.094;2023-12-20T20:42:17;0.07;;;0.00;;
20792;SDS011;10556;-33.662;151.094;2023-12-20T20:47:20;0.87;;;0.00;;
20792;SDS011;10556;-33.662;151.094;2023-12-20T20:52:24;0.10;;;0.10;;
20792;SDS011;10556;-33.662;151.094;2023-12-20T20:57:27;0.33;;;0.07;;
20792;SDS011;10556;-33.662;151.094;2023-12-20T21:02:30;0.10;;;0.10;;
20792;SDS011;10556;-33.662;151.094;2023-12-20T21:07:34;2.03;;;0.10;;
20792;SDS011;10556;-33.662;151.094;2023-12-20T21:12:37;0.10;;;0.10;;
20792;SDS011;10556;-33.662;151.094;2023-12-20T21:17:40;0.20;;;0.00;;
20792;SDS011;10556;-33.662;151.094;2023-12-20T21:22:44;0.00;;;0.00;;
20792;SDS011;10556;-33.662;151.094;2023-12-20T21:27:47;0.10;;;0.00;;
20792;SDS011;10556;-33.662;151.094;2023-12-20T21:32:50;0.10;;;0.10;;
20792;SDS011;10556;-33.662;151.094;2023-12-20T21:37:54;0.13;;;0.00;;
20792;SDS011;10556;-33.662;151.094;2023-12-20T21:42:57;0.20;;;0.00;;
20792;SDS011;10556;-33.662;151.094;2023-12-20T21:47:59;0.30;;;0.20;;
20792;SDS011;10556;-33.662;151.094;2023-12-20T21:53:04;0.30;;;0.10;;
20792;SDS011;10556;-33.662;151.094;2023-12-20T21:58:07;0.20;;;0.10;;
20792;SDS011;10556;-33.662;151.094;2023-12-20T22:03:10;0.50;;;0.10;;
20792;SDS011;10556;-33.662;151.094;2023-12-20T22:08:14;0.10;;;0.03;;
20792;SDS011;10556;-33.662;151.094;2023-12-20T22:13:17;0.33;;;0.10;;
20792;SDS011;10556;-33.662;151.094;2023-12-20T22:18:19;0.10;;;0.10;;
20792;SDS011;10556;-33.662;151.094;2023-12-20T22:23:24;0.37;;;0.10;;
20792;SDS011;10556;-33.662;151.094;2023-12-20T22:28:27;1.07;;;0.23;;
20792;SDS011;10556;-33.662;151.094;2023-12-20T22:33:29;1.20;;;0.30;;
20792;SDS011;10556;-33.662;151.094;2023-12-20T22:38:34;1.60;;;0.30;;
20792;SDS011;10556;-33.662;151.094;2023-12-20T22:43:37;0.70;;;0.30;;
20792;SDS011;10556;-33.662;151.094;2023-12-20T22:48:40;2.10;;;0.30;;
20792;SDS011;10556;-33.662;151.094;2023-12-20T22:53:44;1.73;;;0.40;;
20792;SDS011;10556;-33.662;151.094;2023-12-20T22:58:47;0.27;;;0.10;;
20792;SDS011;10556;-33.662;151.094;2023-12-20T23:03:49;0.10;;;0.10;;
20792;SDS011;10556;-33.662;151.094;2023-12-20T23:08:54;2.50;;;0.30;;
20792;SDS011;10556;-33.662;151.094;2023-12-20T23:13:57;0.73;;;0.20;;
20792;SDS011;10556;-33.662;151.094;2023-12-20T23:18:59;2.27;;;0.67;;
20792;SDS011;10556;-33.662;151.094;2023-12-20T23:24:04;0.73;;;0.20;;
20792;SDS011;10556;-33.662;151.094;2023-12-20T23:29:07;1.63;;;0.30;;
20792;SDS011;10556;-33.662;151.094;2023-12-20T23:34:10;1.23;;;0.20;;
20792;SDS011;10556;-33.662;151.094;2023-12-20T23:39:14;2.57;;;0.30;;
20792;SDS011;10556;-33.662;151.094;2023-12-20T23:44:17;2.57;;;0.40;;
20792;SDS011;10556;-33.662;151.094;2023-12-20T23:49:19;1.00;;;0.30;;
20792;SDS011;10556;-33.662;151.094;2023-12-20T23:54:24;1.57;;;0.40;;
20792;SDS011;10556;-33.662;151.094;2023-12-20T23:59:27;2.50;;;0.40;;
